Accueil
METAR-TAF:

METAR-TAF

Aéroports :

Grazzanise, Italie

latitude: 41-03N, longitude: 014-04E, altitude: 9 m

Observation

Le bulletin a été fait il y a 41 minutes, à 13:55 UTC
Vent calme
Température 11°C
Humidité 82%
Pression 1018 hPa
Visibilité: 8000 m
Nuages épars à une hauteur de 2500 ft
Nuages épars à une hauteur de 3000 ft
Nuages fragmentés à une hauteur de 7000 ft
pluie faible

METAR: LIRM 261355Z 00000KT 8000 -RA SCT025 SCT030 BKN070 11/08 Q1018 RMK OVC VIS MIN 8000 WIND THR06 00000KT BLU

Heure: 15:36 (14:36 UTC)

Prévision

Le bulletin a été fait il y a 36 minutes, à 14:00 UTC
Prévision valable du 26 à 15 UTC au 26 à 24 UTC
Vent 3 kt de direction variable
Visibilité: 8000 m
Nuages épars à une hauteur de 2500 ft
Nuages épars à une hauteur de 3500 ft
Temporairement
du 26 à 15 UTC au 26 à 18 UTC
pluie

TAF: LIRM 261400Z 2615/2624 VRB03KT 8000 SCT025 SCT035 TEMPO 2615/2618 RA

Observations et prévisions météorologiques de plus de 4000 aéroports (messages METAR et TAF).

Les stations disponibles sont représentées par des disques jaunes et rouges sur la carte.

Passer la souris dessus pour voir le nom de la station.

Cliquer dessus pour voir les observations et prévisions météorologiques.

Pour changer de carte: cliquez sur les boutons verts avec une croix noire pour zoomer, sur le bouton vert avec un tiret pour effectuer un zoom arrière, ou sur les flèches vertes pour les cartes adjacentes.


METAR-TAF: